createdAt,value
2023-03-15T00:00:59.879Z,9.75
2023-03-15T00:02:03.755Z,9.00
2023-03-15T00:03:07.604Z,9.50
2023-03-15T00:04:11.626Z,9.50
2023-03-15T00:05:15.960Z,9.50
2023-03-15T00:06:19.614Z,9.00
2023-03-15T00:07:23.523Z,8.75
2023-03-15T00:08:27.271Z,8.25
2023-03-15T00:09:31.208Z,7.75
2023-03-15T00:10:35.002Z,9.00
2023-03-15T00:11:39.106Z,9.75
2023-03-15T00:12:44.570Z,11.00
2023-03-15T00:13:48.949Z,11.00
2023-03-15T00:14:53.458Z,10.25
2023-03-15T00:15:58.224Z,11.50
2023-03-15T00:17:03.002Z,10.00
2023-03-15T00:18:07.311Z,7.25
2023-03-15T00:19:11.410Z,10.00
2023-03-15T00:20:15.308Z,9.00
2023-03-15T00:21:19.622Z,8.00
2023-03-15T00:22:23.723Z,9.50
2023-03-15T00:23:27.720Z,10.00
2023-03-15T00:24:32.248Z,9.00
2023-03-15T00:25:36.552Z,8.50
2023-03-15T00:26:40.856Z,7.25
2023-03-15T00:27:44.852Z,8.25
2023-03-15T00:28:49.379Z,7.75
2023-03-15T00:29:53.573Z,8.00
2023-03-15T00:30:57.799Z,7.25
2023-03-15T00:32:01.679Z,8.00
2023-03-15T00:33:05.579Z,8.00
2023-03-15T00:34:09.616Z,8.50
2023-03-15T00:35:13.272Z,9.75
2023-03-15T00:36:17.176Z,11.00
2023-03-15T00:37:21.300Z,10.50
2023-03-15T00:38:24.964Z,8.00
2023-03-15T00:39:29.185Z,8.25
2023-03-15T00:40:32.970Z,8.00
2023-03-15T00:41:37.289Z,8.00
2023-03-15T00:42:41.276Z,9.00
2023-03-15T00:43:46.930Z,12.25
2023-03-15T00:44:50.917Z,10.25
2023-03-15T00:45:55.330Z,8.25
2023-03-15T00:46:59.886Z,8.25
2023-03-15T00:48:04.867Z,8.50
2023-03-15T00:49:09.180Z,8.50
2023-03-15T00:50:13.499Z,9.00
2023-03-15T00:51:17.493Z,10.25
2023-03-15T00:52:21.909Z,9.00
2023-03-15T00:53:25.901Z,8.00
2023-03-15T00:54:30.338Z,8.50
2023-03-15T00:55:34.521Z,8.75
2023-03-15T00:56:39.134Z,9.50
2023-03-15T00:57:43.438Z,10.25
2023-03-15T00:58:48.067Z,9.50
2023-03-15T00:59:52.259Z,9.00
2023-03-15T01:00:56.239Z,9.00
2023-03-15T01:02:00.486Z,9.50
2023-03-15T01:03:04.633Z,8.00
2023-03-15T01:04:08.669Z,8.50
2023-03-15T01:05:12.573Z,9.00
2023-03-15T01:06:16.696Z,10.00
2023-03-15T01:07:20.777Z,12.50
2023-03-15T01:08:24.677Z,14.00
2023-03-15T01:09:28.981Z,12.75
2023-03-15T01:10:32.674Z,9.75
2023-03-15T01:11:36.592Z,9.50
2023-03-15T01:12:40.680Z,8.50
2023-03-15T01:13:44.460Z,8.00
2023-03-15T01:14:48.469Z,8.25
2023-03-15T01:15:52.322Z,7.75
2023-03-15T01:16:56.166Z,7.00
2023-03-15T01:17:59.909Z,5.75
2023-03-15T01:19:03.776Z,7.00
2023-03-15T01:20:07.559Z,8.00
2023-03-15T01:21:11.615Z,8.25
2023-03-15T01:22:15.767Z,7.75
2023-03-15T01:23:19.775Z,9.00
2023-03-15T01:24:24.082Z,9.00
2023-03-15T01:25:28.282Z,8.00
2023-03-15T01:26:32.287Z,9.00
2023-03-15T01:27:36.090Z,9.50
2023-03-15T01:28:39.786Z,8.25
2023-03-15T01:29:43.890Z,7.25
2023-03-15T01:30:49.689Z,7.00
2023-03-15T01:31:53.008Z,8.00
2023-03-15T01:32:56.954Z,7.25
2023-03-15T01:34:00.813Z,7.00
2023-03-15T01:35:05.215Z,7.00
2023-03-15T01:36:09.356Z,6.75
2023-03-15T01:37:13.432Z,7.50
2023-03-15T01:38:17.728Z,9.75
2023-03-15T01:39:22.152Z,9.50
2023-03-15T01:40:26.448Z,8.00
2023-03-15T01:41:30.556Z,9.50
2023-03-15T01:42:35.063Z,9.00
2023-03-15T01:43:39.479Z,8.00
2023-03-15T01:44:43.582Z,8.75
2023-03-15T01:45:48.296Z,8.25
2023-03-15T01:46:52.840Z,7.00
2023-03-15T01:47:57.233Z,7.00
2023-03-15T01:49:01.438Z,8.50
2023-03-15T01:50:05.633Z,9.25
2023-03-15T01:51:09.735Z,8.75
2023-03-15T01:52:13.963Z,9.00
2023-03-15T01:53:18.151Z,8.50
2023-03-15T01:54:22.455Z,8.50
2023-03-15T01:55:26.763Z,8.50
2023-03-15T01:56:31.070Z,9.50
2023-03-15T01:57:35.190Z,9.50
2023-03-15T01:58:39.386Z,9.25
2023-03-15T01:59:43.614Z,9.00
2023-03-15T02:00:48.153Z,8.50
2023-03-15T02:01:52.255Z,8.50
2023-03-15T02:02:56.410Z,9.75
2023-03-15T02:04:00.813Z,11.00
2023-03-15T02:05:05.036Z,13.75
2023-03-15T02:06:09.359Z,14.00
2023-03-15T02:07:13.742Z,11.25
2023-03-15T02:08:17.851Z,8.50
2023-03-15T02:09:22.257Z,9.00
2023-03-15T02:10:26.566Z,8.75
2023-03-15T02:11:30.874Z,8.00
2023-03-15T02:12:34.674Z,8.75
2023-03-15T02:13:38.676Z,9.00
2023-03-15T02:14:42.776Z,8.00
2023-03-15T02:15:46.880Z,8.50
2023-03-15T02:16:50.929Z,8.25
2023-03-15T02:17:54.989Z,9.50
2023-03-15T02:18:59.093Z,8.00
2023-03-15T02:20:03.057Z,8.25
2023-03-15T02:21:06.797Z,9.50
2023-03-15T02:22:10.883Z,10.50
2023-03-15T02:23:14.888Z,10.00
2023-03-15T02:24:18.995Z,9.25
2023-03-15T02:25:22.886Z,8.25
2023-03-15T02:26:26.805Z,9.50
2023-03-15T02:27:30.639Z,9.50
2023-03-15T02:28:34.699Z,8.75
2023-03-15T02:29:38.494Z,9.00
2023-03-15T02:30:43.618Z,9.50
2023-03-15T02:31:47.852Z,8.00
2023-03-15T02:32:52.289Z,10.00
2023-03-15T02:33:56.637Z,9.00
2023-03-15T02:35:00.645Z,9.00
2023-03-15T02:36:04.650Z,9.50
2023-03-15T02:37:08.650Z,9.00
2023-03-15T02:38:12.948Z,7.50
2023-03-15T02:39:17.472Z,8.00
2023-03-15T02:40:21.575Z,9.50
2023-03-15T02:41:25.875Z,9.50
2023-03-15T02:42:30.183Z,9.00
2023-03-15T02:43:34.393Z,8.50
2023-03-15T02:44:38.399Z,8.50
2023-03-15T02:45:42.859Z,10.25
2023-03-15T02:46:46.918Z,9.50
2023-03-15T02:47:50.918Z,8.50
2023-03-15T02:48:55.446Z,9.00
2023-03-15T02:49:59.540Z,7.25
2023-03-15T02:51:03.737Z,8.00
2023-03-15T02:52:07.745Z,8.50
2023-03-15T02:53:12.039Z,9.50
2023-03-15T02:54:16.255Z,9.00
2023-03-15T02:55:20.880Z,8.25
2023-03-15T02:56:25.178Z,9.50
2023-03-15T02:57:29.602Z,9.50
2023-03-15T02:58:33.700Z,8.00
2023-03-15T02:59:37.801Z,9.50
2023-03-15T03:00:42.202Z,8.00
2023-03-15T03:01:46.412Z,8.50
2023-03-15T03:02:50.426Z,8.00
2023-03-15T03:03:54.526Z,7.00
2023-03-15T03:04:58.835Z,7.75
2023-03-15T03:06:02.828Z,9.75
2023-03-15T03:07:06.644Z,10.50
2023-03-15T03:08:10.721Z,10.00
2023-03-15T03:09:14.625Z,8.50
2023-03-15T03:10:18.529Z,6.50
2023-03-15T03:11:22.522Z,7.25
2023-03-15T03:12:26.422Z,8.00
2023-03-15T03:13:30.117Z,9.00
2023-03-15T03:14:34.128Z,7.00
2023-03-15T03:15:39.508Z,8.25
2023-03-15T03:16:43.178Z,9.00
2023-03-15T03:17:47.347Z,8.75
2023-03-15T03:18:51.568Z,8.75
2023-03-15T03:19:55.864Z,9.25
2023-03-15T03:21:00.091Z,8.00
2023-03-15T03:22:03.958Z,8.75
2023-03-15T03:23:07.770Z,8.50
2023-03-15T03:24:11.865Z,8.50
2023-03-15T03:25:16.083Z,8.50
2023-03-15T03:26:19.978Z,7.50
2023-03-15T03:27:23.866Z,9.00
2023-03-15T03:28:27.883Z,9.00
2023-03-15T03:29:32.200Z,8.50
2023-03-15T03:30:36.035Z,8.75
2023-03-15T03:31:40.071Z,8.50
2023-03-15T03:32:43.841Z,8.25
2023-03-15T03:33:47.674Z,9.00
2023-03-15T03:34:51.454Z,9.25
2023-03-15T03:35:55.781Z,8.50
2023-03-15T03:37:00.095Z,9.50
2023-03-15T03:38:03.976Z,8.50
2023-03-15T03:39:08.192Z,8.50
2023-03-15T03:40:12.304Z,9.00
2023-03-15T03:41:16.194Z,8.50
2023-03-15T03:42:20.510Z,8.50
2023-03-15T03:43:24.809Z,8.50
2023-03-15T03:44:29.239Z,10.00
2023-03-15T03:45:33.546Z,9.50
2023-03-15T03:46:37.416Z,9.00
2023-03-15T03:47:41.953Z,7.00
2023-03-15T03:48:46.443Z,7.25
2023-03-15T03:49:50.768Z,8.75
2023-03-15T03:50:54.851Z,9.00
2023-03-15T03:51:59.064Z,9.75
2023-03-15T03:53:03.198Z,8.00
2023-03-15T03:54:07.912Z,6.75
2023-03-15T03:55:12.194Z,8.50
2023-03-15T03:56:16.805Z,8.75
2023-03-15T03:57:20.714Z,6.75
2023-03-15T03:58:24.913Z,7.75
2023-03-15T04:00:46.035Z,7.00
2023-03-15T04:01:50.343Z,8.25
2023-03-15T04:02:54.687Z,8.00
2023-03-15T04:03:59.246Z,7.00
2023-03-15T04:05:03.767Z,8.75
2023-03-15T04:06:07.895Z,8.00
2023-03-15T04:07:12.085Z,8.50
2023-03-15T04:08:16.486Z,7.50
2023-03-15T04:09:20.518Z,6.25
2023-03-15T04:10:24.699Z,6.75
2023-03-15T04:11:28.913Z,6.75
2023-03-15T04:12:33.024Z,7.00
2023-03-15T04:13:37.725Z,8.00
2023-03-15T04:14:41.926Z,8.50
2023-03-15T04:15:46.351Z,8.00
2023-03-15T04:16:50.466Z,8.75
2023-03-15T04:17:54.647Z,9.00
2023-03-15T04:18:59.171Z,9.00
2023-03-15T04:20:03.268Z,9.50
2023-03-15T04:21:07.571Z,9.00
2023-03-15T04:22:11.286Z,8.25
2023-03-15T04:23:15.486Z,9.75
2023-03-15T04:24:19.782Z,8.00
2023-03-15T04:25:24.009Z,10.00
2023-03-15T04:26:28.105Z,11.00
2023-03-15T04:27:31.933Z,9.25
2023-03-15T04:28:35.691Z,9.50
2023-03-15T04:29:39.690Z,9.00
2023-03-15T04:30:43.485Z,8.75
2023-03-15T04:31:47.413Z,10.50
2023-03-15T04:32:51.705Z,10.00
2023-03-15T04:33:57.435Z,10.00
2023-03-15T04:35:01.640Z,9.25
2023-03-15T04:36:05.572Z,8.50
2023-03-15T04:37:09.448Z,8.50
2023-03-15T04:38:13.541Z,8.75
2023-03-15T04:39:17.639Z,10.00
2023-03-15T04:40:21.544Z,10.75
2023-03-15T04:41:26.081Z,10.00
2023-03-15T04:42:30.357Z,8.50
2023-03-15T04:43:34.470Z,9.50
2023-03-15T04:44:38.264Z,9.00
2023-03-15T04:45:42.203Z,8.75
2023-03-15T04:46:46.287Z,9.00
2023-03-15T04:47:50.693Z,9.25
2023-03-15T04:48:54.822Z,9.00
2023-03-15T04:49:59.088Z,7.75
2023-03-15T04:51:04.031Z,9.50
2023-03-15T04:52:08.427Z,10.25
2023-03-15T04:53:12.634Z,9.25
2023-03-15T04:54:17.043Z,10.00
2023-03-15T04:55:21.654Z,8.50
2023-03-15T04:56:25.876Z,8.75
2023-03-15T04:57:30.183Z,10.50
2023-03-15T04:58:34.378Z,10.00
2023-03-15T04:59:38.681Z,8.50
2023-03-15T05:00:42.930Z,9.75
2023-03-15T05:01:46.859Z,9.50
2023-03-15T05:02:50.902Z,9.50
2023-03-15T05:03:56.420Z,9.50
2023-03-15T05:05:01.440Z,9.00
2023-03-15T05:06:06.068Z,9.00
2023-03-15T05:07:10.376Z,11.00
2023-03-15T05:08:15.306Z,9.00
2023-03-15T05:09:19.845Z,9.50
2023-03-15T05:10:24.034Z,8.00
2023-03-15T05:11:28.273Z,9.25
2023-03-15T05:12:32.640Z,9.50
2023-03-15T05:13:36.752Z,8.25
2023-03-15T05:14:41.044Z,8.50
2023-03-15T05:15:45.365Z,8.00
2023-03-15T05:16:49.580Z,8.00
2023-03-15T05:17:53.786Z,7.50
2023-03-15T05:18:57.880Z,9.00
2023-03-15T05:20:02.494Z,10.00
2023-03-15T05:21:06.696Z,9.00
2023-03-15T05:22:10.823Z,7.50
2023-03-15T05:23:14.932Z,8.00
2023-03-15T05:24:18.896Z,8.50
2023-03-15T05:25:22.902Z,9.25
2023-03-15T05:26:27.634Z,9.00
2023-03-15T05:27:31.932Z,7.00
2023-03-15T05:28:36.057Z,9.00
2023-03-15T05:29:41.260Z,9.00
2023-03-15T05:30:45.260Z,9.00
2023-03-15T05:31:49.204Z,8.50
2023-03-15T05:32:53.384Z,7.75
2023-03-15T05:33:57.376Z,8.25
2023-03-15T05:35:01.600Z,8.50
2023-03-15T05:36:06.102Z,8.00
2023-03-15T05:37:10.589Z,8.25
2023-03-15T05:38:15.514Z,7.50
2023-03-15T05:39:19.844Z,8.00
2023-03-15T05:40:24.638Z,9.00
2023-03-15T05:41:29.565Z,9.00
2023-03-15T05:42:34.605Z,8.00
2023-03-15T05:43:39.315Z,9.00
2023-03-15T05:44:43.611Z,9.50
2023-03-15T05:45:48.734Z,9.75
2023-03-15T05:46:53.463Z,8.75
2023-03-15T05:47:57.671Z,7.50
2023-03-15T05:49:02.109Z,8.00
2023-03-15T05:50:06.497Z,8.00
2023-03-15T05:51:10.709Z,7.00
2023-03-15T05:52:15.024Z,8.00
2023-03-15T05:53:19.624Z,9.00
2023-03-15T05:54:23.827Z,8.50
2023-03-15T05:55:27.970Z,8.50
2023-03-15T05:56:32.559Z,9.50
2023-03-15T05:57:37.009Z,9.50
2023-03-15T05:58:41.306Z,7.50
2023-03-15T05:59:45.492Z,7.00
2023-03-15T06:00:49.797Z,9.00
2023-03-15T06:01:54.308Z,9.50
2023-03-15T06:02:58.515Z,9.00
2023-03-15T06:04:03.072Z,8.00
2023-03-15T06:05:07.334Z,8.00
2023-03-15T06:06:11.452Z,10.25
2023-03-15T06:07:16.266Z,8.00
2023-03-15T06:08:20.669Z,7.75
2023-03-15T06:09:24.992Z,8.00
2023-03-15T06:10:29.181Z,8.50
2023-03-15T06:11:33.682Z,9.50
2023-03-15T06:12:38.004Z,9.00
2023-03-15T06:13:41.996Z,8.75
2023-03-15T06:14:45.995Z,7.25
2023-03-15T06:15:50.417Z,7.50
2023-03-15T06:16:54.756Z,8.50
2023-03-15T06:17:58.786Z,8.00
2023-03-15T06:19:03.332Z,8.50
2023-03-15T06:20:07.446Z,8.50
2023-03-15T06:21:11.950Z,8.00
2023-03-15T06:22:16.464Z,7.25
2023-03-15T06:23:21.491Z,6.50
2023-03-15T06:24:25.801Z,7.00
2023-03-15T06:25:29.912Z,6.75
2023-03-15T06:26:34.213Z,7.00
2023-03-15T06:27:38.836Z,8.00
2023-03-15T06:28:43.740Z,7.75
2023-03-15T06:29:48.444Z,8.50
2023-03-15T06:30:53.089Z,9.00
2023-03-15T06:31:57.987Z,8.75
2023-03-15T06:33:02.673Z,7.00
2023-03-15T06:34:07.640Z,8.00
2023-03-15T06:35:12.244Z,7.75
2023-03-15T06:36:16.864Z,8.00
2023-03-15T06:37:34.243Z,8.00
2023-03-15T06:38:26.309Z,7.00
2023-03-15T06:39:30.234Z,8.00
2023-03-15T06:40:34.314Z,8.00
2023-03-15T06:41:38.636Z,7.00
2023-03-15T06:42:42.820Z,8.00
2023-03-15T06:43:47.156Z,8.00
2023-03-15T06:44:51.384Z,8.75
2023-03-15T06:45:55.565Z,8.50
2023-03-15T06:46:59.554Z,7.50
2023-03-15T06:48:04.063Z,8.00
2023-03-15T06:49:08.171Z,8.75
2023-03-15T06:50:12.320Z,8.00
2023-03-15T06:51:16.351Z,9.00
2023-03-15T06:52:20.600Z,8.00
2023-03-15T06:53:24.995Z,6.50
2023-03-15T06:54:29.214Z,7.50
2023-03-15T06:55:33.210Z,7.50
2023-03-15T06:56:38.427Z,7.25
2023-03-15T06:57:44.634Z,7.50
2023-03-15T06:58:48.598Z,8.00
2023-03-15T06:59:53.494Z,8.75
2023-03-15T07:00:57.333Z,8.75
2023-03-15T07:02:02.017Z,9.50
2023-03-15T07:03:05.810Z,8.00
2023-03-15T07:04:09.635Z,9.00
2023-03-15T07:05:14.251Z,8.00
2023-03-15T07:06:18.333Z,7.50
2023-03-15T07:07:22.355Z,7.50
2023-03-15T07:08:26.648Z,8.00
2023-03-15T07:09:30.587Z,8.00
2023-03-15T07:10:34.857Z,7.50
2023-03-15T07:11:39.378Z,8.50
2023-03-15T07:12:43.667Z,9.50
2023-03-15T07:13:48.276Z,9.00
2023-03-15T07:14:52.495Z,9.00
2023-03-15T07:15:57.157Z,9.50
2023-03-15T07:17:01.341Z,8.75
2023-03-15T07:18:05.421Z,8.00
2023-03-15T07:19:10.770Z,8.50
2023-03-15T07:20:15.159Z,8.50
2023-03-15T07:21:19.364Z,7.50
2023-03-15T07:22:24.285Z,9.00
2023-03-15T07:23:28.492Z,8.00
2023-03-15T07:24:32.901Z,8.50
2023-03-15T07:25:52.033Z,9.50
2023-03-15T07:26:42.464Z,7.50
2023-03-15T07:27:46.892Z,7.25
2023-03-15T07:28:51.161Z,8.00
2023-03-15T07:29:55.770Z,8.50
2023-03-15T07:31:00.394Z,8.50
2023-03-15T07:32:04.596Z,8.25
2023-03-15T07:33:08.765Z,7.00
2023-03-15T07:34:13.223Z,9.00
2023-03-15T07:35:17.439Z,7.75
2023-03-15T07:36:21.730Z,8.00
2023-03-15T07:37:26.036Z,8.25
2023-03-15T07:38:30.138Z,9.25
2023-03-15T07:39:36.298Z,9.50
2023-03-15T07:40:40.414Z,9.50
2023-03-15T07:41:44.516Z,8.00
2023-03-15T07:42:48.509Z,9.00
2023-03-15T07:43:52.600Z,10.50
2023-03-15T07:44:57.196Z,9.75
2023-03-15T07:46:01.683Z,9.50
2023-03-15T07:47:07.569Z,9.00
2023-03-15T07:48:12.176Z,7.25
2023-03-15T07:49:16.689Z,8.00
2023-03-15T07:50:21.195Z,7.75
2023-03-15T07:51:26.230Z,9.00
2023-03-15T07:52:30.843Z,8.75
2023-03-15T07:53:35.452Z,9.50
2023-03-15T07:54:40.210Z,10.00
2023-03-15T07:55:44.698Z,8.25
2023-03-15T07:56:49.498Z,9.25
2023-03-15T07:57:54.438Z,10.75
2023-03-15T07:58:59.276Z,11.00
2023-03-15T08:00:03.884Z,11.25
2023-03-15T08:01:08.486Z,10.00
2023-03-15T08:02:13.239Z,9.50
2023-03-15T08:03:18.300Z,9.50
2023-03-15T08:04:22.938Z,10.00
2023-03-15T08:05:29.067Z,11.25
2023-03-15T08:06:32.673Z,12.00
2023-03-15T08:07:37.089Z,10.50
2023-03-15T08:08:41.704Z,10.75
2023-03-15T08:09:46.512Z,11.50
2023-03-15T08:10:50.765Z,10.00
2023-03-15T08:11:55.567Z,10.75
2023-03-15T08:12:59.680Z,11.50
2023-03-15T08:14:03.996Z,10.25
2023-03-15T08:15:08.120Z,10.00
2023-03-15T08:16:12.613Z,11.00
2023-03-15T08:17:17.397Z,9.75
2023-03-15T08:18:21.909Z,10.75
2023-03-15T08:19:26.337Z,12.00
2023-03-15T08:20:30.905Z,11.00
2023-03-15T08:21:35.349Z,12.00
2023-03-15T08:22:40.089Z,14.00
2023-03-15T08:23:44.706Z,13.00
2023-03-15T08:24:49.720Z,11.50
2023-03-15T08:25:54.690Z,12.50
2023-03-15T08:26:59.359Z,11.50
2023-03-15T08:28:04.178Z,12.00
2023-03-15T08:29:08.883Z,11.50
2023-03-15T08:30:13.002Z,12.50
2023-03-15T08:31:17.487Z,13.75
2023-03-15T08:32:21.617Z,13.75
2023-03-15T08:33:26.118Z,12.00
2023-03-15T08:34:30.636Z,12.50
2023-03-15T08:35:35.717Z,13.50
2023-03-15T08:36:40.201Z,13.50
2023-03-15T08:37:44.575Z,12.50
2023-03-15T08:38:48.998Z,13.75
2023-03-15T08:39:53.611Z,14.00
2023-03-15T08:40:57.622Z,11.50
2023-03-15T08:42:01.434Z,11.50
2023-03-15T08:43:05.445Z,10.50
2023-03-15T08:44:09.333Z,10.00
2023-03-15T08:45:13.024Z,10.50
2023-03-15T08:46:17.147Z,9.75
2023-03-15T08:47:21.035Z,11.00
2023-03-15T08:48:25.514Z,12.00
2023-03-15T08:49:29.926Z,11.75
2023-03-15T08:50:34.157Z,12.00
2023-03-15T08:51:38.651Z,12.00
2023-03-15T08:52:42.793Z,12.75
2023-03-15T08:53:47.060Z,12.00
2023-03-15T08:54:51.774Z,12.25
2023-03-15T08:55:56.189Z,11.75
2023-03-15T08:57:00.495Z,12.00
2023-03-15T08:58:04.824Z,11.00
2023-03-15T08:59:09.271Z,11.50
2023-03-15T09:00:14.771Z,10.75
2023-03-15T09:01:19.085Z,13.00
2023-03-15T09:02:23.331Z,11.50
2023-03-15T09:03:27.484Z,12.00
2023-03-15T09:04:32.096Z,11.00
2023-03-15T09:05:36.410Z,10.25
2023-03-15T09:06:40.646Z,11.50
2023-03-15T09:07:45.138Z,12.50
2023-03-15T09:08:49.659Z,13.50
2023-03-15T09:09:54.435Z,11.50
2023-03-15T09:10:59.372Z,11.50
2023-03-15T09:12:04.322Z,10.50
2023-03-15T09:13:09.205Z,12.00
2023-03-15T09:14:13.824Z,11.75
2023-03-15T09:15:18.650Z,12.50
2023-03-15T09:16:22.840Z,11.50
2023-03-15T09:17:26.989Z,12.50
2023-03-15T09:18:31.366Z,12.50
2023-03-15T09:19:36.092Z,11.00
2023-03-15T09:20:40.698Z,11.75
2023-03-15T09:21:44.980Z,10.50
2023-03-15T09:22:49.235Z,12.25
2023-03-15T09:23:54.237Z,13.50
2023-03-15T09:24:59.567Z,11.00
2023-03-15T09:26:03.871Z,11.00
2023-03-15T09:27:07.981Z,12.00
2023-03-15T09:28:12.193Z,9.50
2023-03-15T09:29:16.323Z,10.25
2023-03-15T09:30:20.308Z,10.50
2023-03-15T09:31:24.683Z,11.50
2023-03-15T09:32:28.882Z,11.50
2023-03-15T09:33:32.838Z,12.00
2023-03-15T09:34:41.959Z,11.75
2023-03-15T09:35:43.062Z,11.25
2023-03-15T09:36:48.733Z,11.50
2023-03-15T09:37:53.880Z,11.00
2023-03-15T09:38:58.194Z,11.00
2023-03-15T09:40:02.902Z,10.75
2023-03-15T09:41:07.676Z,10.50
2023-03-15T09:42:13.226Z,10.50
2023-03-15T09:43:18.138Z,11.00
2023-03-15T09:44:22.661Z,12.00
2023-03-15T09:45:27.192Z,13.50
2023-03-15T09:46:31.719Z,12.50
2023-03-15T09:47:36.246Z,11.25
2023-03-15T09:48:40.643Z,12.00
2023-03-15T09:49:44.932Z,12.50
2023-03-15T09:50:49.248Z,10.50
2023-03-15T09:51:53.876Z,10.75
2023-03-15T09:52:58.182Z,12.50
2023-03-15T09:54:02.739Z,13.00
2023-03-15T09:55:07.073Z,12.50
2023-03-15T09:56:11.487Z,13.50
2023-03-15T09:57:16.141Z,11.75
2023-03-15T09:58:20.713Z,12.50
2023-03-15T09:59:24.941Z,13.00
2023-03-15T10:00:29.845Z,14.00
2023-03-15T10:01:34.482Z,12.50
2023-03-15T10:02:38.874Z,11.50
2023-03-15T10:03:43.052Z,12.50
2023-03-15T10:04:47.383Z,13.50
2023-03-15T10:05:51.688Z,13.00
2023-03-15T10:06:56.098Z,12.50
2023-03-15T10:08:00.608Z,13.50
2023-03-15T10:09:05.030Z,13.50
2023-03-15T10:10:09.555Z,13.75
2023-03-15T10:11:14.168Z,14.00
2023-03-15T10:12:18.974Z,13.50
2023-03-15T10:13:23.956Z,14.00
2023-03-15T10:14:28.121Z,15.00
2023-03-15T10:15:33.699Z,13.50
2023-03-15T10:16:37.943Z,12.75
2023-03-15T10:17:42.367Z,11.50
2023-03-15T10:18:46.564Z,12.25
2023-03-15T10:19:51.380Z,13.25
2023-03-15T10:20:55.908Z,14.25
2023-03-15T10:22:00.204Z,12.75
2023-03-15T10:23:04.560Z,12.00
2023-03-15T10:24:10.051Z,13.00
2023-03-15T10:25:14.460Z,14.75
2023-03-15T10:26:19.076Z,14.50
2023-03-15T10:27:23.480Z,12.50
2023-03-15T10:28:28.000Z,13.25
2023-03-15T10:29:32.916Z,13.25
2023-03-15T10:30:37.740Z,11.50
2023-03-15T10:31:44.908Z,12.25
2023-03-15T10:32:47.923Z,13.50
2023-03-15T10:33:52.511Z,14.00
2023-03-15T10:34:57.438Z,13.50
2023-03-15T10:36:11.042Z,14.50
2023-03-15T10:37:08.193Z,14.00
2023-03-15T10:38:13.116Z,12.50
2023-03-15T10:39:17.736Z,12.50
2023-03-15T10:40:22.577Z,13.00
2023-03-15T10:41:28.898Z,12.00
2023-03-15T10:42:33.318Z,13.25
2023-03-15T10:43:38.134Z,13.25
2023-03-15T10:44:42.867Z,14.00
2023-03-15T10:45:47.695Z,12.75
2023-03-15T10:46:52.335Z,10.33
2023-03-15T10:48:00.757Z,11.50
2023-03-15T10:49:03.068Z,12.25
2023-03-15T10:50:07.582Z,11.75
2023-03-15T10:51:12.624Z,12.00
2023-03-15T10:52:17.003Z,10.25
2023-03-15T10:53:21.617Z,10.50
2023-03-15T10:54:26.751Z,12.00
2023-03-15T10:55:31.268Z,13.00
2023-03-15T10:56:35.813Z,13.50
2023-03-15T10:57:40.118Z,13.00
2023-03-15T10:58:44.710Z,13.75
2023-03-15T10:59:48.909Z,12.00
2023-03-15T11:00:53.721Z,12.75
2023-03-15T11:01:58.476Z,13.50
2023-03-15T11:03:03.022Z,15.00
2023-03-15T11:04:07.860Z,14.00
2023-03-15T11:05:12.346Z,12.75
2023-03-15T11:06:16.738Z,13.50
2023-03-15T11:07:20.811Z,14.00
2023-03-15T11:08:25.118Z,13.50
2023-03-15T11:09:29.524Z,15.25
2023-03-15T11:10:33.635Z,15.75
2023-03-15T11:11:37.829Z,15.75
2023-03-15T11:12:41.937Z,14.50
2023-03-15T11:13:46.242Z,14.00
2023-03-15T11:14:50.553Z,15.50
2023-03-15T11:15:55.049Z,15.75
2023-03-15T11:16:59.273Z,13.50
2023-03-15T11:18:03.577Z,13.25
2023-03-15T11:19:07.886Z,14.75
2023-03-15T11:20:12.310Z,15.00
2023-03-15T11:21:16.618Z,13.50
2023-03-15T11:22:21.071Z,12.75
2023-03-15T11:23:25.527Z,15.00
2023-03-15T11:24:30.341Z,14.25
2023-03-15T11:25:35.074Z,15.00
2023-03-15T11:26:39.620Z,15.00
2023-03-15T11:27:44.111Z,15.50
2023-03-15T11:28:48.626Z,15.00
2023-03-15T11:29:53.000Z,15.00
2023-03-15T11:30:57.528Z,14.75
2023-03-15T11:32:01.945Z,14.25
2023-03-15T11:33:06.617Z,16.50
2023-03-15T11:34:10.980Z,16.50
2023-03-15T11:35:15.493Z,16.75
2023-03-15T11:36:19.994Z,15.00
2023-03-15T11:37:24.298Z,14.75
2023-03-15T11:38:36.955Z,15.00
2023-03-15T11:39:41.219Z,16.50
2023-03-15T11:40:45.526Z,15.50
2023-03-15T11:41:49.950Z,14.50
2023-03-15T11:42:54.763Z,15.25
2023-03-15T11:43:59.707Z,14.00
2023-03-15T11:45:04.306Z,14.00
2023-03-15T11:46:08.845Z,17.75
2023-03-15T11:47:13.415Z,17.00
2023-03-15T11:48:17.867Z,14.75
2023-03-15T11:49:21.732Z,17.50
2023-03-15T11:50:26.457Z,17.00
2023-03-15T11:51:30.890Z,15.00
2023-03-15T11:52:35.483Z,15.75
2023-03-15T11:53:39.787Z,17.50
2023-03-15T11:54:44.197Z,14.75
2023-03-15T11:55:48.915Z,14.00
2023-03-15T11:56:53.442Z,15.00
2023-03-15T11:57:57.735Z,15.25
2023-03-15T11:59:01.947Z,16.50
2023-03-15T12:00:06.107Z,18.00
2023-03-15T12:01:10.473Z,14.75
2023-03-15T12:02:14.781Z,14.25
2023-03-15T12:03:18.898Z,14.50
2023-03-15T12:04:23.174Z,14.00
2023-03-15T12:05:27.376Z,14.25
2023-03-15T12:06:31.892Z,15.00
2023-03-15T12:07:36.402Z,15.00
2023-03-15T12:08:40.404Z,12.50
2023-03-15T12:09:44.810Z,11.50
2023-03-15T12:10:49.337Z,13.75
2023-03-15T12:11:53.635Z,15.00
2023-03-15T12:12:57.620Z,15.00
2023-03-15T12:14:01.740Z,13.75
2023-03-15T12:15:06.118Z,14.00
2023-03-15T12:16:10.196Z,14.50
2023-03-15T12:17:14.438Z,12.50
2023-03-15T12:18:18.766Z,12.50
2023-03-15T12:19:23.283Z,13.25
2023-03-15T12:20:27.604Z,13.50
2023-03-15T12:21:31.709Z,14.00
2023-03-15T12:22:37.476Z,13.75
2023-03-15T12:23:41.862Z,13.00
2023-03-15T12:24:46.153Z,12.00
2023-03-15T12:25:55.026Z,13.50
2023-03-15T12:26:56.098Z,13.25
2023-03-15T12:28:00.618Z,13.25
2023-03-15T12:29:04.930Z,13.00
2023-03-15T12:30:09.331Z,13.25
2023-03-15T12:31:13.952Z,13.25
2023-03-15T12:32:18.252Z,14.00
2023-03-15T12:33:23.076Z,15.00
2023-03-15T12:34:27.901Z,15.00
2023-03-15T12:35:32.228Z,14.00
2023-03-15T12:36:36.529Z,13.25
2023-03-15T12:37:40.724Z,15.00
2023-03-15T12:38:45.226Z,15.50
2023-03-15T12:39:49.962Z,15.00
2023-03-15T12:40:54.015Z,13.75
2023-03-15T12:41:59.710Z,15.00
2023-03-15T12:43:04.227Z,15.25
2023-03-15T12:44:08.414Z,14.00
2023-03-15T12:45:12.935Z,13.50
2023-03-15T12:46:17.126Z,13.50
2023-03-15T12:47:21.443Z,14.00
2023-03-15T12:48:25.749Z,15.25
2023-03-15T12:49:30.054Z,14.25
2023-03-15T12:50:34.262Z,14.00
2023-03-15T12:51:38.562Z,15.50
2023-03-15T12:52:43.204Z,14.00
2023-03-15T12:53:48.217Z,13.75
2023-03-15T12:54:52.829Z,14.50
2023-03-15T12:56:06.206Z,13.50
2023-03-15T12:57:02.279Z,13.00
2023-03-15T12:58:06.188Z,14.00
2023-03-15T12:59:10.394Z,14.50
2023-03-15T13:00:14.899Z,14.00
2023-03-15T13:01:19.099Z,13.00
2023-03-15T13:02:29.522Z,12.00
2023-03-15T13:03:28.585Z,15.00
2023-03-15T13:04:32.718Z,14.25
2023-03-15T13:05:36.934Z,14.50
2023-03-15T13:06:41.140Z,15.75
2023-03-15T13:07:51.053Z,15.25
2023-03-15T13:08:50.578Z,13.75
2023-03-15T13:09:54.546Z,13.50
2023-03-15T13:10:58.781Z,13.50
2023-03-15T13:12:03.211Z,14.50
2023-03-15T13:13:07.703Z,13.75
2023-03-15T13:14:12.013Z,14.50
2023-03-15T13:15:16.232Z,14.50
2023-03-15T13:16:20.582Z,15.00
2023-03-15T13:17:24.727Z,14.50
2023-03-15T13:18:29.145Z,15.50
2023-03-15T13:19:33.268Z,16.00
2023-03-15T13:20:38.194Z,14.50
2023-03-15T13:21:43.820Z,13.50
2023-03-15T13:22:55.502Z,14.00
2023-03-15T13:23:52.626Z,15.50
2023-03-15T13:24:56.706Z,14.50
2023-03-15T13:26:01.153Z,14.75
2023-03-15T13:27:05.454Z,16.25
2023-03-15T13:28:09.978Z,16.00
2023-03-15T13:29:14.189Z,17.00
2023-03-15T13:30:18.395Z,15.50
2023-03-15T13:31:22.656Z,15.00
2023-03-15T13:32:26.908Z,14.50
2023-03-15T13:33:31.105Z,11.75
2023-03-15T13:34:35.313Z,13.25
2023-03-15T13:35:41.028Z,14.75
2023-03-15T13:36:46.301Z,13.50
2023-03-15T13:37:50.701Z,14.00
2023-03-15T13:38:54.893Z,15.00
2023-03-15T13:39:59.099Z,15.50
2023-03-15T13:41:03.207Z,14.75
2023-03-15T13:42:07.317Z,14.00
2023-03-15T13:43:11.689Z,13.50
2023-03-15T13:44:15.927Z,14.25
2023-03-15T13:45:20.038Z,14.50
2023-03-15T13:46:24.117Z,13.50
2023-03-15T13:47:28.538Z,14.50
2023-03-15T13:48:32.954Z,15.50
2023-03-15T13:49:37.054Z,16.25
2023-03-15T13:50:41.254Z,15.75
2023-03-15T13:51:45.884Z,17.75
2023-03-15T13:52:49.862Z,15.25
2023-03-15T13:53:53.872Z,15.25
2023-03-15T13:54:57.874Z,13.75
2023-03-15T13:56:02.197Z,13.00
2023-03-15T13:57:06.504Z,14.75
2023-03-15T13:58:10.806Z,14.50
2023-03-15T13:59:15.017Z,14.00
2023-03-15T14:00:19.030Z,14.25
2023-03-15T14:01:23.262Z,12.50
2023-03-15T14:02:27.738Z,14.00
2023-03-15T14:03:31.939Z,15.00
2023-03-15T14:04:36.354Z,13.50